Time;durP1;ratioP1;P1;durP2;ratioP2;P2;SDS_P1;SDS_P2;PMS_P1;PMS_P2;Temp;Humidity;BMP_temperature;BMP_pressure;BME280_temperature;BME280_humidity;BME280_pressure;Samples;Min_cycle;Max_cycle;Signal;HPM_P1;HPM_P2
2021/05/11 00:02:20;;;;;;;17.27;15.65;;;;;;;;;;5054212;28;20025;-66
2021/05/11 00:04:46;;;;;;;17.50;15.73;;;;;;;;;;5054038;28;20470;-66
2021/05/11 00:07:12;;;;;;;17.40;15.60;;;;;;;;;;5054128;28;20048;-66
2021/05/11 00:09:38;;;;;;;16.95;15.30;;;;;;;;;;5053095;28;20424;-66
2021/05/11 00:12:05;;;;;;;14.00;12.63;;;;;;;;;;5051576;28;20068;-66
2021/05/11 00:14:31;;;;;;;16.38;14.07;;;;;;;;;;5053917;28;20117;-66
2021/05/11 00:16:57;;;;;;;16.48;14.75;;;;;;;;;;5053435;28;20423;-66
2021/05/11 00:19:23;;;;;;;24.40;14.82;;;;;;;;;;5053249;28;20534;-66
2021/05/11 00:21:49;;;;;;;16.83;14.45;;;;;;;;;;5047902;28;20041;-66
2021/05/11 00:24:16;;;;;;;15.00;13.48;;;;;;;;;;5049003;28;20050;-66
2021/05/11 00:26:43;;;;;;;17.08;15.27;;;;;;;;;;5053741;28;20036;-66
2021/05/11 00:29:09;;;;;;;22.90;15.00;;;;;;;;;;5052592;28;20045;-66
2021/05/11 00:31:35;;;;;;;17.67;15.18;;;;;;;;;;5053440;28;20482;-67
2021/05/11 00:34:01;;;;;;;16.17;14.48;;;;;;;;;;5052684;28;20026;-67
2021/05/11 00:36:27;;;;;;;15.45;13.38;;;;;;;;;;5053182;28;20025;-67
2021/05/11 00:38:54;;;;;;;16.98;15.18;;;;;;;;;;5048322;28;20025;-67
2021/05/11 00:41:20;;;;;;;15.63;14.07;;;;;;;;;;5047985;28;20494;-67
2021/05/11 00:43:46;;;;;;;17.75;15.05;;;;;;;;;;5052982;28;20028;-67
2021/05/11 00:46:13;;;;;;;15.90;14.18;;;;;;;;;;5053332;28;20071;-67
2021/05/11 00:48:39;;;;;;;15.40;13.80;;;;;;;;;;5052876;28;20029;-67
2021/05/11 00:51:06;;;;;;;16.17;13.60;;;;;;;;;;5053133;28;20029;-67
2021/05/11 00:53:32;;;;;;;14.73;13.32;;;;;;;;;;5053035;28;20068;-66
2021/05/11 00:55:58;;;;;;;15.88;13.63;;;;;;;;;;5053873;28;20064;-67
2021/05/11 00:58:25;;;;;;;17.05;13.73;;;;;;;;;;5053111;28;20433;-66
2021/05/11 01:00:51;;;;;;;15.45;13.63;;;;;;;;;;5053104;28;20082;-67
2021/05/11 01:03:17;;;;;;;16.27;14.00;;;;;;;;;;5053411;28;20029;-67
2021/05/11 01:05:43;;;;;;;19.05;15.15;;;;;;;;;;5052771;28;20230;-67
2021/05/11 01:08:10;;;;;;;15.35;13.43;;;;;;;;;;5047763;28;20028;-67
2021/05/11 01:10:36;;;;;;;16.35;14.30;;;;;;;;;;5052681;28;20021;-67
2021/05/11 01:13:02;;;;;;;14.80;13.38;;;;;;;;;;5053113;28;20029;-67
2021/05/11 01:15:28;;;;;;;17.13;12.77;;;;;;;;;;5053124;28;20025;-67
2021/05/11 01:18:01;;;;;;;16.30;14.25;;;;;;;;;;5053300;28;20021;-67
2021/05/11 01:20:34;;;;;;;17.42;12.98;;;;;;;;;;5053208;28;20064;-66
2021/05/11 01:25:48;;;;;;;14.45;12.98;;;;;;;;;;5052453;28;20025;-66
2021/05/11 01:28:42;;;;;;;17.80;13.23;;;;;;;;;;5053222;28;20490;-66
2021/05/11 01:31:21;;;;;;;14.70;13.20;;;;;;;;;;5051804;28;20036;-67
2021/05/11 01:47:53;;;;;;;18.15;12.70;;;;;;;;;;5052235;28;20037;-66
2021/05/11 01:50:27;;;;;;;18.88;13.95;;;;;;;;;;5053167;28;20036;-66
2021/05/11 01:53:03;;;;;;;20.60;13.27;;;;;;;;;;5052791;28;20025;-66
2021/05/11 01:58:39;;;;;;;14.48;11.75;;;;;;;;;;5051726;28;20057;-67
2021/05/11 02:23:10;;;;;;;15.20;11.93;;;;;;;;;;5055353;28;20116;-66
2021/05/11 02:25:36;;;;;;;12.50;11.30;;;;;;;;;;5055567;28;20024;-66
2021/05/11 02:28:02;;;;;;;12.27;10.98;;;;;;;;;;5051654;28;20069;-66
2021/05/11 02:30:28;;;;;;;12.70;10.90;;;;;;;;;;5051086;28;20025;-66
2021/05/11 02:32:54;;;;;;;12.02;10.77;;;;;;;;;;5054327;28;20021;-66
2021/05/11 02:35:20;;;;;;;13.35;11.05;;;;;;;;;;5055749;28;20059;-66
2021/05/11 02:37:46;;;;;;;15.05;10.90;;;;;;;;;;5055862;28;20021;-66
2021/05/11 02:40:13;;;;;;;12.43;11.05;;;;;;;;;;5055361;28;20036;-66
2021/05/11 02:42:40;;;;;;;12.45;11.15;;;;;;;;;;5055807;28;20025;-66
2021/05/11 02:45:09;;;;;;;11.43;10.25;;;;;;;;;;5055358;28;20025;-66
2021/05/11 02:47:47;;;;;;;12.02;10.73;;;;;;;;;;5055969;28;20025;-66
2021/05/11 02:50:13;;;;;;;12.63;10.65;;;;;;;;;;5055827;28;20033;-66
2021/05/11 02:52:39;;;;;;;11.65;10.27;;;;;;;;;;5055075;28;20033;-66
2021/05/11 02:55:05;;;;;;;12.20;9.80;;;;;;;;;;5055272;28;20025;-66
2021/05/11 02:57:31;;;;;;;14.77;10.95;;;;;;;;;;5055907;28;20029;-66
2021/05/11 02:59:57;;;;;;;18.98;10.15;;;;;;;;;;5055607;28;20560;-66
2021/05/11 03:02:23;;;;;;;12.20;11.00;;;;;;;;;;5055052;28;20433;-66
2021/05/11 03:04:49;;;;;;;12.70;10.05;;;;;;;;;;5055162;28;20025;-66
2021/05/11 03:07:15;;;;;;;21.85;10.15;;;;;;;;;;5055177;28;20029;-67
2021/05/11 03:09:41;;;;;;;13.38;10.68;;;;;;;;;;5055287;28;20467;-66
2021/05/11 03:12:08;;;;;;;10.70;9.68;;;;;;;;;;5054196;28;20434;-66
2021/05/11 03:14:34;;;;;;;10.57;9.50;;;;;;;;;;5055031;28;20067;-66
2021/05/11 03:17:00;;;;;;;14.50;10.00;;;;;;;;;;5054847;28;20028;-66
2021/05/11 03:19:27;;;;;;;16.08;11.45;;;;;;;;;;5055089;28;20029;-66
2021/05/11 03:21:53;;;;;;;16.35;12.02;;;;;;;;;;5054565;28;20082;-66
2021/05/11 03:24:19;;;;;;;22.25;13.60;;;;;;;;;;5054857;28;20036;-66
2021/05/11 03:26:45;;;;;;;36.78;22.27;;;;;;;;;;5054688;28;20032;-67
2021/05/11 03:29:11;;;;;;;36.67;19.75;;;;;;;;;;5055285;28;20556;-66
2021/05/11 03:31:37;;;;;;;34.97;17.65;;;;;;;;;;5053531;28;20017;-66
2021/05/11 03:34:03;;;;;;;37.47;18.35;;;;;;;;;;5050199;28;20192;-66
2021/05/11 03:36:29;;;;;;;35.63;17.40;;;;;;;;;;5049606;28;20031;-66
2021/05/11 03:38:57;;;;;;;25.95;15.13;;;;;;;;;;5053328;28;20394;-66
2021/05/11 03:41:27;;;;;;;28.10;14.50;;;;;;;;;;5054574;28;20132;-66
2021/05/11 03:44:03;;;;;;;29.65;14.48;;;;;;;;;;5054596;28;20360;-66
2021/05/11 03:46:29;;;;;;;38.47;17.52;;;;;;;;;;5054692;28;20025;-66
2021/05/11 03:48:55;;;;;;;25.58;15.75;;;;;;;;;;5054060;28;20100;-66
2021/05/11 03:51:21;;;;;;;28.05;16.35;;;;;;;;;;5054018;28;20372;-65
2021/05/11 03:53:47;;;;;;;23.48;15.13;;;;;;;;;;5054268;28;20094;-66
2021/05/11 03:56:14;;;;;;;27.55;15.77;;;;;;;;;;5054218;28;20055;-66
2021/05/11 03:58:40;;;;;;;26.55;15.45;;;;;;;;;;5054365;28;20466;-66
2021/05/11 04:01:06;;;;;;;26.10;14.43;;;;;;;;;;5053954;28;20029;-66
2021/05/11 04:03:32;;;;;;;25.08;13.25;;;;;;;;;;5051092;28;20534;-66
2021/05/11 04:06:00;;;;;;;25.20;13.80;;;;;;;;;;5047701;28;20028;-66
2021/05/11 04:08:38;;;;;;;23.25;13.95;;;;;;;;;;5048350;28;20032;-66
2021/05/11 04:11:24;;;;;;;25.48;14.02;;;;;;;;;;5049568;28;20032;-67
2021/05/11 04:16:38;;;;;;;21.95;13.52;;;;;;;;;;5049772;28;20119;-66
2021/05/11 04:19:04;;;;;;;23.83;13.43;;;;;;;;;;5048853;28;20850;-66
2021/05/11 04:21:30;;;;;;;25.60;13.65;;;;;;;;;;5047739;28;20484;-66
2021/05/11 04:23:56;;;;;;;22.20;12.88;;;;;;;;;;5046040;28;20047;-66
2021/05/11 04:26:23;;;;;;;21.10;13.90;;;;;;;;;;5048753;28;20512;-67
2021/05/11 04:28:49;;;;;;;23.77;14.48;;;;;;;;;;5046603;28;20053;-65
2021/05/11 04:31:15;;;;;;;19.42;12.10;;;;;;;;;;5053012;28;20363;-66
2021/05/11 04:33:41;;;;;;;23.00;12.93;;;;;;;;;;5052713;28;20163;-65
2021/05/11 04:36:07;;;;;;;18.45;11.38;;;;;;;;;;5047204;28;20020;-71
2021/05/11 04:38:33;;;;;;;16.55;11.68;;;;;;;;;;5048061;28;20095;-66
2021/05/11 04:40:59;;;;;;;36.00;11.30;;;;;;;;;;5053243;28;20029;-65
2021/05/11 04:43:27;;;;;;;23.33;11.43;;;;;;;;;;5053414;28;20017;-66
2021/05/11 04:46:05;;;;;;;28.30;11.45;;;;;;;;;;5053184;28;20025;-65
2021/05/11 04:48:31;;;;;;;22.20;12.00;;;;;;;;;;5052968;28;20025;-65
2021/05/11 04:50:57;;;;;;;23.83;10.02;;;;;;;;;;5053017;28;20060;-65
2021/05/11 04:53:23;;;;;;;21.10;10.35;;;;;;;;;;5052884;28;20503;-66
2021/05/11 04:55:49;;;;;;;19.98;10.18;;;;;;;;;;5053145;28;20025;-66
2021/05/11 04:58:15;;;;;;;19.27;9.75;;;;;;;;;;5053192;28;20411;-66
2021/05/11 05:00:42;;;;;;;16.85;10.48;;;;;;;;;;5053081;28;20033;-66
2021/05/11 05:03:11;;;;;;;14.18;9.05;;;;;;;;;;5053016;28;20053;-66
2021/05/11 05:05:37;;;;;;;23.75;10.27;;;;;;;;;;5053000;28;20048;-65
2021/05/11 05:08:03;;;;;;;20.80;9.65;;;;;;;;;;5052891;28;20428;-65
2021/05/11 05:10:29;;;;;;;19.05;8.80;;;;;;;;;;5053088;28;20112;-66
2021/05/11 05:12:55;;;;;;;14.98;10.93;;;;;;;;;;5052765;28;20467;-67
2021/05/11 05:15:21;;;;;;;23.85;11.02;;;;;;;;;;5052688;28;20374;-67
2021/05/11 05:17:47;;;;;;;19.25;11.13;;;;;;;;;;5052888;28;20021;-67
2021/05/11 05:20:13;;;;;;;21.17;9.30;;;;;;;;;;5053168;28;20040;-68
2021/05/11 05:22:42;;;;;;;16.40;9.02;;;;;;;;;;5052196;28;20471;-67
2021/05/11 05:25:12;;;;;;;23.05;8.98;;;;;;;;;;5052627;28;20033;-66
2021/05/11 05:27:44;;;;;;;33.35;8.80;;;;;;;;;;5053141;28;20112;-67
2021/05/11 05:30:11;;;;;;;20.92;10.50;;;;;;;;;;5053061;28;20112;-66
2021/05/11 05:32:37;;;;;;;23.70;10.18;;;;;;;;;;5052926;28;20449;-67
2021/05/11 05:35:03;;;;;;;19.55;9.10;;;;;;;;;;5053505;28;20417;-67
2021/05/11 05:37:29;;;;;;;13.55;7.97;;;;;;;;;;5056723;28;20048;-66
2021/05/11 05:39:58;;;;;;;17.70;8.90;;;;;;;;;;5056668;28;20029;-67
2021/05/11 05:42:24;;;;;;;17.30;9.13;;;;;;;;;;5056872;28;20474;-66
2021/05/11 05:44:50;;;;;;;13.48;8.80;;;;;;;;;;5056394;28;20470;-67
2021/05/11 05:47:18;;;;;;;28.80;9.55;;;;;;;;;;5057122;28;20056;-67
2021/05/11 05:49:47;;;;;;;14.48;8.75;;;;;;;;;;5056889;28;20071;-67
2021/05/11 05:52:21;;;;;;;26.95;9.13;;;;;;;;;;5056860;28;20025;-66
2021/05/11 05:54:48;;;;;;;15.13;9.13;;;;;;;;;;5056078;28;20033;-66
2021/05/11 05:57:14;;;;;;;11.93;9.20;;;;;;;;;;5056699;28;20038;-66
2021/05/11 05:59:41;;;;;;;23.90;8.30;;;;;;;;;;5056797;28;20116;-66
2021/05/11 06:02:10;;;;;;;17.17;9.32;;;;;;;;;;5056347;28;20044;-66
2021/05/11 06:04:36;;;;;;;17.58;8.18;;;;;;;;;;5056288;28;20159;-66
2021/05/11 06:07:02;;;;;;;18.55;8.50;;;;;;;;;;5056189;28;20032;-67
2021/05/11 06:09:29;;;;;;;12.60;8.60;;;;;;;;;;5056428;28;20053;-66
2021/05/11 06:12:19;;;;;;;13.88;7.43;;;;;;;;;;5056771;28;20053;-66
2021/05/11 06:17:00;;;;;;;18.73;8.90;;;;;;;;;;5055695;28;20044;-66
2021/05/11 06:17:27;;;;;;;17.80;8.38;;;;;;;;;;5055398;28;20352;-66
2021/05/11 06:19:55;;;;;;;14.73;9.55;;;;;;;;;;5056075;28;20029;-66
2021/05/11 06:22:21;;;;;;;20.10;7.85;;;;;;;;;;5056222;28;20100;-65
2021/05/11 06:24:47;;;;;;;13.50;8.60;;;;;;;;;;5055927;28;20083;-66
2021/05/11 06:27:14;;;;;;;11.65;7.60;;;;;;;;;;5056300;28;20033;-65
2021/05/11 06:29:44;;;;;;;13.13;8.02;;;;;;;;;;5055883;28;20103;-65
2021/05/11 06:32:10;;;;;;;8.60;6.53;;;;;;;;;;5055935;28;20020;-66
2021/05/11 06:34:38;;;;;;;17.83;7.03;;;;;;;;;;5055776;28;20029;-66
2021/05/11 06:37:04;;;;;;;16.23;6.57;;;;;;;;;;5055650;28;20055;-66
2021/05/11 06:39:30;;;;;;;10.82;6.50;;;;;;;;;;5056127;28;20486;-66
2021/05/11 06:41:57;;;;;;;11.40;5.22;;;;;;;;;;5055361;28;20048;-66
2021/05/11 06:44:36;;;;;;;8.90;5.28;;;;;;;;;;5055450;28;20036;-65
2021/05/11 06:47:21;;;;;;;7.70;4.85;;;;;;;;;;5053898;28;20541;-65
2021/05/11 06:55:20;;;;;;;6.82;3.42;;;;;;;;;;5054114;28;20085;-66
2021/05/11 06:57:46;;;;;;;4.10;3.70;;;;;;;;;;5055372;28;20147;-66
2021/05/11 07:00:13;;;;;;;4.43;4.03;;;;;;;;;;5055638;28;20076;-66
2021/05/11 07:02:39;;;;;;;7.45;4.13;;;;;;;;;;5055337;28;20090;-66
2021/05/11 07:05:05;;;;;;;10.40;4.22;;;;;;;;;;5055204;28;20029;-66
2021/05/11 07:07:33;;;;;;;10.02;4.28;;;;;;;;;;5055186;28;20039;-65
2021/05/11 07:10:09;;;;;;;5.88;4.70;;;;;;;;;;5054861;28;20029;-66
2021/05/11 07:15:21;;;;;;;5.90;4.90;;;;;;;;;;5051806;28;20033;-67
2021/05/11 07:17:48;;;;;;;10.52;4.60;;;;;;;;;;5055052;28;20029;-66
2021/05/11 07:20:14;;;;;;;6.78;3.75;;;;;;;;;;5054742;28;20132;-68
2021/05/11 07:22:40;;;;;;;9.43;4.47;;;;;;;;;;5054874;28;20025;-66
2021/05/11 07:25:10;;;;;;;6.90;4.63;;;;;;;;;;5054604;28;20079;-66
2021/05/11 07:28:07;;;;;;;12.85;4.47;;;;;;;;;;5054776;28;20036;-66
2021/05/11 07:30:28;;;;;;;5.90;4.10;;;;;;;;;;5054139;28;20033;-66
2021/05/11 07:32:54;;;;;;;6.82;3.70;;;;;;;;;;5054095;28;20113;-65
2021/05/11 07:35:21;;;;;;;4.85;3.80;;;;;;;;;;5055429;28;20031;-65
2021/05/11 07:37:47;;;;;;;5.38;4.00;;;;;;;;;;5054679;28;20024;-66
2021/05/11 07:40:13;;;;;;;5.35;3.75;;;;;;;;;;5054555;28;20033;-66
2021/05/11 07:42:39;;;;;;;6.45;3.72;;;;;;;;;;5054749;28;20025;-65
2021/05/11 07:45:07;;;;;;;11.77;4.55;;;;;;;;;;5053928;28;20111;-65
2021/05/11 08:15:21;;;;;;;8.13;4.20;;;;;;;;;;5053636;28;20467;-65
2021/05/11 08:17:55;;;;;;;7.43;4.18;;;;;;;;;;5054471;28;20025;-66
2021/05/11 08:23:36;;;;;;;5.60;3.95;;;;;;;;;;5052301;28;20478;-65
2021/05/11 08:28:40;;;;;;;4.85;3.72;;;;;;;;;;5052695;28;20053;-66
2021/05/11 08:31:06;;;;;;;7.25;3.95;;;;;;;;;;5053311;28;20095;-66
2021/05/11 08:33:32;;;;;;;7.32;4.53;;;;;;;;;;5053603;28;20122;-66
2021/05/11 08:35:59;;;;;;;5.38;3.60;;;;;;;;;;5053628;28;20025;-66
2021/05/11 08:38:25;;;;;;;6.35;3.70;;;;;;;;;;5053688;28;20066;-66
2021/05/11 08:40:51;;;;;;;4.80;3.50;;;;;;;;;;5053140;28;20029;-66
2021/05/11 08:43:33;;;;;;;9.18;4.10;;;;;;;;;;5053428;28;20032;-66
2021/05/11 08:45:59;;;;;;;;;;;;;;;;;;5053796;28;20025;-66
2021/05/11 08:48:25;;;;;;;4.90;4.05;;;;;;;;;;5053373;28;19958;-66
2021/05/11 08:50:59;;;;;;;3.88;3.47;;;;;;;;;;5053272;28;20371;-65
2021/05/11 08:53:47;;;;;;;7.65;4.15;;;;;;;;;;5053663;28;20017;-66
2021/05/11 09:27:21;;;;;;;16.80;14.23;;;;;;;;;;5055808;28;20033;-65
2021/05/11 09:30:05;;;;;;;19.42;15.48;;;;;;;;;;5056917;28;20521;-66
2021/05/11 09:52:26;;;;;;;25.80;23.00;;;;;;;;;;5055625;28;20508;-64
2021/05/11 09:54:52;;;;;;;22.05;20.02;;;;;;;;;;5056068;28;20040;-63
2021/05/11 09:57:30;;;;;;;21.63;19.65;;;;;;;;;;5056278;28;20074;-64
2021/05/11 10:32:10;;;;;;;16.05;14.48;;;;;;;;;;5044595;28;20039;-65
2021/05/11 10:38:42;;;;;;;17.33;14.43;;;;;;;;;;5043727;28;20060;-65
2021/05/11 10:43:50;;;;;;;18.38;15.80;;;;;;;;;;5053482;28;20378;-66
2021/05/11 10:48:47;;;;;;;17.90;16.17;;;;;;;;;;5054312;28;20037;-66
2021/05/11 10:51:17;;;;;;;16.50;15.00;;;;;;;;;;5055551;28;20056;-65
2021/05/11 10:53:51;;;;;;;18.15;15.95;;;;;;;;;;5055163;28;20056;-65
2021/05/11 10:56:40;;;;;;;17.88;16.17;;;;;;;;;;5055506;28;20022;-64
2021/05/11 10:59:19;;;;;;;24.60;16.67;;;;;;;;;;5054176;28;20025;-65
2021/05/11 11:01:48;;;;;;;18.63;16.58;;;;;;;;;;5055162;28;20128;-66
2021/05/11 11:04:15;;;;;;;20.65;15.93;;;;;;;;;;5055317;28;20039;-64
2021/05/11 11:07:01;;;;;;;18.80;17.00;;;;;;;;;;5055227;28;20037;-64
2021/05/11 11:09:29;;;;;;;17.60;15.80;;;;;;;;;;5054489;28;20021;-64
2021/05/11 11:11:55;;;;;;;18.30;16.40;;;;;;;;;;5055051;28;20480;-64
2021/05/11 11:14:21;;;;;;;20.02;18.15;;;;;;;;;;5055140;28;20025;-64
2021/05/11 11:16:49;;;;;;;19.40;17.35;;;;;;;;;;5054395;28;20056;-65
2021/05/11 11:19:16;;;;;;;20.75;18.77;;;;;;;;;;5055018;28;20025;-66
2021/05/11 11:21:49;;;;;;;18.33;16.48;;;;;;;;;;5054606;28;20131;-65
2021/05/11 11:24:31;;;;;;;22.38;16.17;;;;;;;;;;5054922;28;20028;-63
2021/05/11 11:26:58;;;;;;;18.30;16.52;;;;;;;;;;5054425;28;20112;-64
2021/05/11 11:29:24;;;;;;;20.13;18.00;;;;;;;;;;5054357;28;20053;-64
2021/05/11 11:31:50;;;;;;;26.30;16.92;;;;;;;;;;5054429;28;20032;-64
2021/05/11 11:34:18;;;;;;;14.65;13.32;;;;;;;;;;5054362;28;20021;-64
2021/05/11 11:36:45;;;;;;;14.10;12.82;;;;;;;;;;5054442;28;20028;-62
2021/05/11 11:39:19;;;;;;;17.10;15.52;;;;;;;;;;5054220;28;20380;-63
2021/05/11 11:41:46;;;;;;;14.00;12.73;;;;;;;;;;5054041;28;20116;-63
2021/05/11 11:44:16;;;;;;;14.15;12.90;;;;;;;;;;5054229;28;20028;-64
2021/05/11 11:46:42;;;;;;;14.23;12.73;;;;;;;;;;5054342;28;20112;-64
2021/05/11 11:49:12;;;;;;;14.95;13.45;;;;;;;;;;5050133;28;20037;-65
2021/05/11 11:51:39;;;;;;;13.65;12.25;;;;;;;;;;5052576;28;20064;-65
2021/05/11 11:54:11;;;;;;;13.15;11.95;;;;;;;;;;5052669;28;20056;-66
2021/05/11 11:57:44;;;;;;;;;;;;;;;;;;5054886;28;20025;-65
2021/05/11 11:59:23;;;;;;;15.07;13.57;;;;;;;;;;5059278;28;19912;-65
2021/05/11 12:01:57;;;;;;;13.90;12.57;;;;;;;;;;5053783;28;20048;-65
2021/05/11 12:04:23;;;;;;;13.75;12.55;;;;;;;;;;5054049;28;20383;-65
2021/05/11 12:06:51;;;;;;;14.45;11.48;;;;;;;;;;5052629;28;20116;-66
2021/05/11 12:09:17;;;;;;;13.85;12.70;;;;;;;;;;5066256;28;20025;-65
2021/05/11 12:11:43;;;;;;;14.40;12.77;;;;;;;;;;5073675;28;20382;-65
2021/05/11 12:14:09;;;;;;;13.02;11.80;;;;;;;;;;5073385;28;20052;-66
2021/05/11 12:16:44;;;;;;;12.60;11.30;;;;;;;;;;5073540;28;20029;-65
2021/05/11 12:19:13;;;;;;;13.88;12.57;;;;;;;;;;5071442;28;20024;-67
2021/05/11 12:21:55;;;;;;;13.85;11.38;;;;;;;;;;5073225;28;20089;-65
2021/05/11 12:24:23;;;;;;;12.23;10.75;;;;;;;;;;5073971;28;20031;-65
2021/05/11 12:26:49;;;;;;;13.18;11.80;;;;;;;;;;5073565;28;20020;-64
2021/05/11 12:29:16;;;;;;;12.18;10.98;;;;;;;;;;5071101;28;20498;-64
2021/05/11 12:31:43;;;;;;;15.48;10.10;;;;;;;;;;5073241;28;20478;-64
2021/05/11 12:34:11;;;;;;;11.90;10.55;;;;;;;;;;5073546;28;20025;-64
2021/05/11 12:36:46;;;;;;;10.98;10.02;;;;;;;;;;5072865;28;20020;-66
2021/05/11 12:39:22;;;;;;;11.27;10.18;;;;;;;;;;5071659;28;20028;-65
2021/05/11 12:41:48;;;;;;;12.40;10.80;;;;;;;;;;5073252;28;20028;-65
2021/05/11 12:44:30;;;;;;;10.48;9.52;;;;;;;;;;5072486;28;20035;-66
2021/05/11 12:47:00;;;;;;;10.52;9.52;;;;;;;;;;5073056;28;20020;-65
2021/05/11 12:49:27;;;;;;;11.88;9.73;;;;;;;;;;5071434;28;20420;-66
2021/05/11 12:51:54;;;;;;;15.63;9.35;;;;;;;;;;5072767;28;20017;-65
2021/05/11 12:54:22;;;;;;;9.85;8.95;;;;;;;;;;5072941;28;20024;-66
2021/05/11 12:56:59;;;;;;;8.55;7.65;;;;;;;;;;5072880;28;20027;-68
2021/05/11 12:59:30;;;;;;;9.30;8.30;;;;;;;;;;5057036;28;20033;-66
2021/05/11 13:02:14;;;;;;;32.90;8.93;;;;;;;;;;5053243;28;20504;-65
2021/05/11 13:05:03;;;;;;;8.25;7.43;;;;;;;;;;5053201;28;20029;-65
2021/05/11 13:16:08;;;;;;;15.98;7.50;;;;;;;;;;5052270;28;20436;-65
2021/05/11 13:21:36;;;;;;;10.55;7.60;;;;;;;;;;5051971;28;20437;-64
2021/05/11 13:26:54;;;;;;;8.70;6.93;;;;;;;;;;5048917;28;20360;-66
2021/05/11 13:29:37;;;;;;;7.93;7.13;;;;;;;;;;5050965;28;20045;-64
2021/05/11 13:32:06;;;;;;;10.70;8.30;;;;;;;;;;5052958;28;20487;-64
2021/05/11 13:34:34;;;;;;;13.25;7.03;;;;;;;;;;5052190;28;20029;-65
2021/05/11 13:37:00;;;;;;;7.78;6.70;;;;;;;;;;5051965;28;20048;-65
2021/05/11 13:39:27;;;;;;;10.80;6.88;;;;;;;;;;5052298;28;20468;-64
2021/05/11 13:41:53;;;;;;;8.75;7.88;;;;;;;;;;5052018;28;20048;-65
2021/05/11 13:44:19;;;;;;;11.88;7.82;;;;;;;;;;5050993;28;20113;-64
2021/05/11 13:46:45;;;;;;;10.00;7.32;;;;;;;;;;5050891;28;20029;-72
2021/05/11 13:49:14;;;;;;;9.90;7.60;;;;;;;;;;5051089;28;20071;-68
2021/05/11 13:51:40;;;;;;;9.00;8.10;;;;;;;;;;5051161;28;20025;-65
2021/05/11 13:54:08;;;;;;;8.40;7.70;;;;;;;;;;5052153;28;20108;-64
2021/05/11 14:02:25;;;;;;;13.40;7.63;;;;;;;;;;5054540;28;20067;-65
2021/05/11 14:04:51;;;;;;;8.70;7.72;;;;;;;;;;5055152;28;20133;-64
2021/05/11 14:07:17;;;;;;;8.32;7.53;;;;;;;;;;5055193;28;20043;-68
2021/05/11 14:09:44;;;;;;;7.80;6.82;;;;;;;;;;5055941;28;20032;-65
2021/05/11 14:12:10;;;;;;;9.25;7.30;;;;;;;;;;5055037;28;20116;-65
2021/05/11 14:14:36;;;;;;;8.73;7.82;;;;;;;;;;5055450;28;20038;-64
2021/05/11 14:17:02;;;;;;;8.35;7.55;;;;;;;;;;5055580;28;20074;-63
2021/05/11 14:19:30;;;;;;;7.90;7.07;;;;;;;;;;5055607;28;20478;-63
2021/05/11 14:21:56;;;;;;;9.00;8.13;;;;;;;;;;5055230;28;20363;-63
2021/05/11 14:24:24;;;;;;;8.18;7.47;;;;;;;;;;5054766;28;20067;-65
2021/05/11 14:26:50;;;;;;;8.35;7.55;;;;;;;;;;5054132;28;20106;-64
2021/05/11 14:29:16;;;;;;;8.55;7.75;;;;;;;;;;5055399;28;20045;-64
2021/05/11 14:31:42;;;;;;;8.32;7.18;;;;;;;;;;5055420;28;20025;-64
2021/05/11 14:34:09;;;;;;;9.00;7.25;;;;;;;;;;5055778;28;20025;-64
2021/05/11 14:36:36;;;;;;;8.65;6.85;;;;;;;;;;5055342;28;20028;-64
2021/05/11 14:39:02;;;;;;;6.53;5.95;;;;;;;;;;5054502;28;20115;-65
2021/05/11 14:41:29;;;;;;;10.13;6.50;;;;;;;;;;5054081;28;20037;-66
2021/05/11 14:43:55;;;;;;;6.93;6.35;;;;;;;;;;5054145;28;20036;-64
2021/05/11 14:46:21;;;;;;;7.38;6.57;;;;;;;;;;5055165;28;20021;-64
2021/05/11 14:48:47;;;;;;;6.30;5.78;;;;;;;;;;5054559;28;20078;-65
2021/05/11 14:51:13;;;;;;;6.85;6.15;;;;;;;;;;5055416;28;20082;-64
2021/05/11 14:53:40;;;;;;;8.00;6.57;;;;;;;;;;5054284;28;20120;-65
2021/05/11 14:56:08;;;;;;;7.13;6.53;;;;;;;;;;5054537;28;20048;-64
2021/05/11 14:58:34;;;;;;;9.05;8.25;;;;;;;;;;5054959;28;20433;-64
2021/05/11 15:01:00;;;;;;;7.90;6.75;;;;;;;;;;5054553;28;20067;-65
2021/05/11 15:03:26;;;;;;;13.93;9.40;;;;;;;;;;5054842;28;20067;-65
2021/05/11 15:05:52;;;;;;;17.75;10.10;;;;;;;;;;5048294;28;20379;-65
2021/05/11 15:08:18;;;;;;;11.55;10.45;;;;;;;;;;5033576;28;20029;-64
2021/05/11 15:10:46;;;;;;;11.00;9.80;;;;;;;;;;5034885;28;20033;-64
2021/05/11 15:13:12;;;;;;;10.30;9.38;;;;;;;;;;5034355;28;20116;-64
2021/05/11 15:15:39;;;;;;;15.23;10.80;;;;;;;;;;5034961;28;20021;-65
2021/05/11 15:18:06;;;;;;;12.52;11.15;;;;;;;;;;5034627;28;20386;-64
2021/05/11 15:20:33;;;;;;;11.77;10.57;;;;;;;;;;5035065;28;20387;-64
2021/05/11 15:22:59;;;;;;;15.52;11.98;;;;;;;;;;5034323;28;20033;-64
2021/05/11 15:25:26;;;;;;;13.13;11.93;;;;;;;;;;5034307;28;20474;-64
2021/05/11 15:27:54;;;;;;;14.02;12.65;;;;;;;;;;5033808;28;20049;-65
2021/05/11 15:30:21;;;;;;;14.90;12.98;;;;;;;;;;5034730;28;20490;-64
2021/05/11 15:32:49;;;;;;;14.93;13.52;;;;;;;;;;5033702;28;20033;-65
2021/05/11 15:35:15;;;;;;;14.68;13.32;;;;;;;;;;5034086;28;20029;-65
2021/05/11 15:37:42;;;;;;;13.90;12.60;;;;;;;;;;5033906;28;20044;-64
2021/05/11 15:40:09;;;;;;;17.48;14.00;;;;;;;;;;5033652;28;20033;-65
2021/05/11 15:42:35;;;;;;;16.33;14.77;;;;;;;;;;5033973;28;20052;-63
2021/05/11 15:45:01;;;;;;;15.90;14.30;;;;;;;;;;5033664;28;20121;-65
2021/05/11 15:47:27;;;;;;;15.95;14.55;;;;;;;;;;5034531;28;20025;-64
2021/05/11 15:49:53;;;;;;;15.77;14.20;;;;;;;;;;5034099;28;20452;-67
2021/05/11 15:52:19;;;;;;;18.50;16.77;;;;;;;;;;5034399;28;20021;-65
2021/05/11 15:54:45;;;;;;;16.90;15.27;;;;;;;;;;5033361;28;20036;-73
2021/05/11 15:57:11;;;;;;;19.77;17.95;;;;;;;;;;5034099;28;20117;-65
2021/05/11 15:59:37;;;;;;;19.13;17.45;;;;;;;;;;5033491;28;20383;-65
2021/05/11 16:02:03;;;;;;;19.63;17.63;;;;;;;;;;5033822;28;20041;-64
2021/05/11 16:04:30;;;;;;;21.20;19.17;;;;;;;;;;5033579;28;20072;-72
2021/05/11 16:06:56;;;;;;;20.92;19.02;;;;;;;;;;5033127;28;20051;-65
2021/05/11 16:09:22;;;;;;;22.73;20.83;;;;;;;;;;5033680;28;20094;-65
2021/05/11 16:11:48;;;;;;;21.13;19.25;;;;;;;;;;5033826;28;20077;-65
2021/05/11 16:14:14;;;;;;;22.05;20.05;;;;;;;;;;5033566;28;20360;-65
2021/05/11 16:16:41;;;;;;;20.98;18.98;;;;;;;;;;5033485;28;20025;-65
2021/05/11 16:19:07;;;;;;;23.92;21.85;;;;;;;;;;5032927;28;20032;-66
2021/05/11 16:21:33;;;;;;;24.33;21.80;;;;;;;;;;5033561;28;20037;-66
2021/05/11 16:23:59;;;;;;;26.20;23.70;;;;;;;;;;5033054;28;20063;-66
2021/05/11 16:26:25;;;;;;;24.08;21.83;;;;;;;;;;5034249;28;20049;-67
2021/05/11 16:28:52;;;;;;;23.73;21.70;;;;;;;;;;5053160;28;20399;-67
2021/05/11 16:31:18;;;;;;;23.88;20.50;;;;;;;;;;5053202;28;20032;-70
2021/05/11 16:33:44;;;;;;;22.05;20.15;;;;;;;;;;5052678;28;20129;-67
2021/05/11 16:36:10;;;;;;;25.42;21.45;;;;;;;;;;5053708;28;20413;-67
2021/05/11 16:38:36;;;;;;;27.70;21.92;;;;;;;;;;5053290;28;20055;-67
2021/05/11 16:41:02;;;;;;;22.50;20.45;;;;;;;;;;5053214;28;20094;-67
2021/05/11 16:43:28;;;;;;;25.65;21.23;;;;;;;;;;5053100;28;20029;-67
2021/05/11 16:45:56;;;;;;;24.95;22.67;;;;;;;;;;5053182;28;20549;-67
2021/05/11 16:48:22;;;;;;;24.88;22.67;;;;;;;;;;5052383;28;20356;-65
2021/05/11 16:50:48;;;;;;;23.30;21.17;;;;;;;;;;5053217;28;20029;-66
2021/05/11 16:53:16;;;;;;;22.55;20.38;;;;;;;;;;5052598;28;20537;-63
2021/05/11 16:55:42;;;;;;;24.02;21.73;;;;;;;;;;5052701;28;20027;-66
2021/05/11 16:58:08;;;;;;;24.33;21.92;;;;;;;;;;5052739;28;20048;-66
2021/05/11 17:00:35;;;;;;;23.65;21.50;;;;;;;;;;5050447;28;20386;-67
2021/05/11 17:03:01;;;;;;;21.83;20.00;;;;;;;;;;5052414;28;20044;-67
2021/05/11 17:05:27;;;;;;;23.23;21.02;;;;;;;;;;5053078;28;20021;-66
2021/05/11 17:07:55;;;;;;;24.80;22.02;;;;;;;;;;5052444;28;20032;-66
2021/05/11 17:10:21;;;;;;;19.67;17.13;;;;;;;;;;5044797;28;20021;-67
2021/05/11 17:12:48;;;;;;;19.38;17.65;;;;;;;;;;5037508;28;20418;-65
2021/05/11 17:15:14;;;;;;;26.02;18.05;;;;;;;;;;5032633;28;20034;-65
2021/05/11 17:17:40;;;;;;;20.45;17.40;;;;;;;;;;5032464;28;20026;-65
2021/05/11 17:20:07;;;;;;;22.63;18.20;;;;;;;;;;5033097;28;20391;-65
2021/05/11 17:22:33;;;;;;;19.85;17.80;;;;;;;;;;5032184;28;20037;-66
2021/05/11 17:24:59;;;;;;;20.25;18.45;;;;;;;;;;5032566;28;20028;-65
2021/05/11 17:27:27;;;;;;;20.85;19.05;;;;;;;;;;5032719;28;20032;-66
2021/05/11 17:29:53;;;;;;;17.60;16.08;;;;;;;;;;5032660;28;20100;-66
2021/05/11 17:32:21;;;;;;;23.60;18.13;;;;;;;;;;5035392;28;20105;-66
2021/05/11 17:34:47;;;;;;;23.35;20.90;;;;;;;;;;5036435;28;20025;-66
2021/05/11 17:37:13;;;;;;;22.30;20.05;;;;;;;;;;5036141;28;20028;-66
2021/05/11 17:39:39;;;;;;;23.40;21.25;;;;;;;;;;5036550;28;20524;-65
2021/05/11 17:42:08;;;;;;;25.80;22.90;;;;;;;;;;5041031;28;20072;-66
2021/05/11 17:44:34;;;;;;;27.55;25.23;;;;;;;;;;5043004;28;20091;-66
2021/05/11 17:47:02;;;;;;;27.08;24.58;;;;;;;;;;5043843;28;20067;-66
2021/05/11 17:49:28;;;;;;;27.23;24.48;;;;;;;;;;5045313;28;20025;-69